sensor_id;sensor_type;location;lat;lon;timestamp;temperature;humidity
506;DHT22;551;48.524;9.056;2024-02-14T00:00:59;3.90;1.00
506;DHT22;551;48.524;9.056;2024-02-14T00:03:24;3.90;1.00
506;DHT22;551;48.524;9.056;2024-02-14T00:05:50;3.90;1.00
506;DHT22;551;48.524;9.056;2024-02-14T00:08:17;3.90;1.00
506;DHT22;551;48.524;9.056;2024-02-14T00:10:43;3.90;1.00
506;DHT22;551;48.524;9.056;2024-02-14T00:13:10;3.80;1.00
506;DHT22;551;48.524;9.056;2024-02-14T00:15:36;3.80;1.00
506;DHT22;551;48.524;9.056;2024-02-14T00:18:02;3.70;1.00
506;DHT22;551;48.524;9.056;2024-02-14T00:20:27;3.70;1.00
506;DHT22;551;48.524;9.056;2024-02-14T00:22:53;3.70;1.00
506;DHT22;551;48.524;9.056;2024-02-14T00:25:18;3.70;1.00
506;DHT22;551;48.524;9.056;2024-02-14T00:27:44;3.70;1.00
506;DHT22;551;48.524;9.056;2024-02-14T00:30:10;3.70;1.00
506;DHT22;551;48.524;9.056;2024-02-14T00:32:35;3.70;1.00
506;DHT22;551;48.524;9.056;2024-02-14T00:35:01;3.70;1.00
506;DHT22;551;48.524;9.056;2024-02-14T00:37:26;3.70;1.00
506;DHT22;551;48.524;9.056;2024-02-14T00:39:52;3.70;1.00
506;DHT22;551;48.524;9.056;2024-02-14T00:42:19;3.70;1.00
506;DHT22;551;48.524;9.056;2024-02-14T00:44:44;3.70;1.00
506;DHT22;551;48.524;9.056;2024-02-14T00:47:10;3.80;1.00
506;DHT22;551;48.524;9.056;2024-02-14T00:49:36;3.80;1.00
506;DHT22;551;48.524;9.056;2024-02-14T00:52:02;3.80;1.00
506;DHT22;551;48.524;9.056;2024-02-14T00:54:27;3.90;1.00
506;DHT22;551;48.524;9.056;2024-02-14T00:56:53;3.90;1.00
506;DHT22;551;48.524;9.056;2024-02-14T00:59:18;4.00;1.00
506;DHT22;551;48.524;9.056;2024-02-14T01:01:44;4.10;1.00
506;DHT22;551;48.524;9.056;2024-02-14T01:04:10;4.10;1.00
506;DHT22;551;48.524;9.056;2024-02-14T01:06:35;4.20;1.00
506;DHT22;551;48.524;9.056;2024-02-14T01:09:01;4.20;1.00
506;DHT22;551;48.524;9.056;2024-02-14T01:11:26;4.30;1.00
506;DHT22;551;48.524;9.056;2024-02-14T01:13:52;4.30;1.00
506;DHT22;551;48.524;9.056;2024-02-14T01:16:17;4.40;1.00
506;DHT22;551;48.524;9.056;2024-02-14T01:18:43;4.40;1.00
506;DHT22;551;48.524;9.056;2024-02-14T01:21:09;4.50;1.00
506;DHT22;551;48.524;9.056;2024-02-14T01:23:34;4.60;1.00
506;DHT22;551;48.524;9.056;2024-02-14T01:26:01;4.70;1.00
506;DHT22;551;48.524;9.056;2024-02-14T01:28:27;4.70;1.00
506;DHT22;551;48.524;9.056;2024-02-14T01:30:53;4.70;1.00
506;DHT22;551;48.524;9.056;2024-02-14T01:33:18;4.70;1.00
506;DHT22;551;48.524;9.056;2024-02-14T01:35:44;4.80;1.00
506;DHT22;551;48.524;9.056;2024-02-14T01:38:09;4.80;1.00
506;DHT22;551;48.524;9.056;2024-02-14T01:40:37;4.90;1.00
506;DHT22;551;48.524;9.056;2024-02-14T01:43:02;4.90;1.00
506;DHT22;551;48.524;9.056;2024-02-14T01:45:28;4.90;1.00
506;DHT22;551;48.524;9.056;2024-02-14T01:47:54;5.00;1.00
506;DHT22;551;48.524;9.056;2024-02-14T01:50:21;5.00;1.00
506;DHT22;551;48.524;9.056;2024-02-14T01:52:54;5.00;1.00
506;DHT22;551;48.524;9.056;2024-02-14T01:55:21;5.00;1.00
506;DHT22;551;48.524;9.056;2024-02-14T01:57:47;5.00;1.00
506;DHT22;551;48.524;9.056;2024-02-14T02:00:14;5.00;1.00
506;DHT22;551;48.524;9.056;2024-02-14T02:02:43;5.10;1.00
506;DHT22;551;48.524;9.056;2024-02-14T02:05:09;5.00;1.00
506;DHT22;551;48.524;9.056;2024-02-14T02:07:35;5.00;1.00
506;DHT22;551;48.524;9.056;2024-02-14T02:10:01;5.00;1.00
506;DHT22;551;48.524;9.056;2024-02-14T02:12:29;5.00;1.00
506;DHT22;551;48.524;9.056;2024-02-14T02:14:55;5.00;1.00
506;DHT22;551;48.524;9.056;2024-02-14T02:17:20;5.00;1.00
506;DHT22;551;48.524;9.056;2024-02-14T02:19:46;5.00;1.00
506;DHT22;551;48.524;9.056;2024-02-14T02:22:12;5.00;1.00
506;DHT22;551;48.524;9.056;2024-02-14T02:24:37;5.00;1.00
506;DHT22;551;48.524;9.056;2024-02-14T02:27:03;5.00;1.00
506;DHT22;551;48.524;9.056;2024-02-14T02:29:29;4.90;1.00
506;DHT22;551;48.524;9.056;2024-02-14T02:31:54;4.90;1.00
506;DHT22;551;48.524;9.056;2024-02-14T02:34:20;4.90;1.00
506;DHT22;551;48.524;9.056;2024-02-14T02:36:46;4.80;1.00
506;DHT22;551;48.524;9.056;2024-02-14T02:39:14;4.70;1.00
506;DHT22;551;48.524;9.056;2024-02-14T02:41:40;4.70;1.00
506;DHT22;551;48.524;9.056;2024-02-14T02:44:05;4.60;1.00
506;DHT22;551;48.524;9.056;2024-02-14T02:46:33;4.70;1.00
506;DHT22;551;48.524;9.056;2024-02-14T02:48:59;4.70;1.00
506;DHT22;551;48.524;9.056;2024-02-14T02:51:25;4.70;1.00
506;DHT22;551;48.524;9.056;2024-02-14T02:53:50;4.80;1.00
506;DHT22;551;48.524;9.056;2024-02-14T02:56:17;4.80;1.00
506;DHT22;551;48.524;9.056;2024-02-14T02:58:44;4.80;1.00
506;DHT22;551;48.524;9.056;2024-02-14T03:01:09;4.90;1.00
506;DHT22;551;48.524;9.056;2024-02-14T03:03:37;4.90;1.00
506;DHT22;551;48.524;9.056;2024-02-14T03:06:04;5.00;1.00
506;DHT22;551;48.524;9.056;2024-02-14T03:08:30;5.00;1.00
506;DHT22;551;48.524;9.056;2024-02-14T03:10:56;5.00;1.00
506;DHT22;551;48.524;9.056;2024-02-14T03:13:24;5.00;1.00
506;DHT22;551;48.524;9.056;2024-02-14T03:15:52;4.90;1.00
506;DHT22;551;48.524;9.056;2024-02-14T03:18:17;4.90;1.00
506;DHT22;551;48.524;9.056;2024-02-14T03:20:43;4.90;1.00
506;DHT22;551;48.524;9.056;2024-02-14T03:23:08;4.80;1.00
506;DHT22;551;48.524;9.056;2024-02-14T03:25:34;4.80;1.00
506;DHT22;551;48.524;9.056;2024-02-14T03:28:02;4.80;1.00
506;DHT22;551;48.524;9.056;2024-02-14T03:30:37;4.80;1.00
506;DHT22;551;48.524;9.056;2024-02-14T03:33:05;4.70;1.00
506;DHT22;551;48.524;9.056;2024-02-14T03:35:31;4.70;1.00
506;DHT22;551;48.524;9.056;2024-02-14T03:37:56;4.70;1.00
506;DHT22;551;48.524;9.056;2024-02-14T03:40:22;4.70;1.00
506;DHT22;551;48.524;9.056;2024-02-14T03:42:48;4.70;1.00
506;DHT22;551;48.524;9.056;2024-02-14T03:45:13;4.70;1.00
506;DHT22;551;48.524;9.056;2024-02-14T03:47:39;4.60;1.00
506;DHT22;551;48.524;9.056;2024-02-14T03:50:06;4.60;1.00
506;DHT22;551;48.524;9.056;2024-02-14T03:52:32;4.50;1.00
506;DHT22;551;48.524;9.056;2024-02-14T03:54:58;4.50;1.00
506;DHT22;551;48.524;9.056;2024-02-14T03:57:27;4.40;1.00
506;DHT22;551;48.524;9.056;2024-02-14T03:59:59;4.30;1.00
506;DHT22;551;48.524;9.056;2024-02-14T04:02:27;4.30;1.00
506;DHT22;551;48.524;9.056;2024-02-14T04:04:53;4.20;1.00
506;DHT22;551;48.524;9.056;2024-02-14T04:07:19;4.30;1.00
506;DHT22;551;48.524;9.056;2024-02-14T04:09:44;4.20;1.00
506;DHT22;551;48.524;9.056;2024-02-14T04:12:10;4.20;1.00
506;DHT22;551;48.524;9.056;2024-02-14T04:14:36;4.30;1.00
506;DHT22;551;48.524;9.056;2024-02-14T04:17:02;4.30;1.00
506;DHT22;551;48.524;9.056;2024-02-14T04:19:27;4.30;1.00
506;DHT22;551;48.524;9.056;2024-02-14T04:21:53;4.20;1.00
506;DHT22;551;48.524;9.056;2024-02-14T04:24:19;4.10;1.00
506;DHT22;551;48.524;9.056;2024-02-14T04:26:45;4.10;1.00
506;DHT22;551;48.524;9.056;2024-02-14T04:29:10;4.00;1.00
506;DHT22;551;48.524;9.056;2024-02-14T04:31:36;4.00;1.00
506;DHT22;551;48.524;9.056;2024-02-14T04:34:02;4.00;1.00
506;DHT22;551;48.524;9.056;2024-02-14T04:36:27;3.90;1.00
506;DHT22;551;48.524;9.056;2024-02-14T04:38:55;3.90;1.00
506;DHT22;551;48.524;9.056;2024-02-14T04:41:21;3.80;1.00
506;DHT22;551;48.524;9.056;2024-02-14T04:43:46;3.70;1.00
506;DHT22;551;48.524;9.056;2024-02-14T04:46:12;3.70;1.00
506;DHT22;551;48.524;9.056;2024-02-14T04:48:38;3.70;1.00
506;DHT22;551;48.524;9.056;2024-02-14T04:51:04;3.60;1.00
506;DHT22;551;48.524;9.056;2024-02-14T04:53:30;3.70;1.00
506;DHT22;551;48.524;9.056;2024-02-14T04:55:56;3.70;1.00
506;DHT22;551;48.524;9.056;2024-02-14T04:58:22;3.70;1.00
506;DHT22;551;48.524;9.056;2024-02-14T05:00:47;3.60;1.00
506;DHT22;551;48.524;9.056;2024-02-14T05:03:13;3.60;1.00
506;DHT22;551;48.524;9.056;2024-02-14T05:05:38;3.50;1.00
506;DHT22;551;48.524;9.056;2024-02-14T05:08:04;3.50;1.00
506;DHT22;551;48.524;9.056;2024-02-14T05:10:31;3.50;1.00
506;DHT22;551;48.524;9.056;2024-02-14T05:12:57;3.50;1.00
506;DHT22;551;48.524;9.056;2024-02-14T05:15:23;3.50;1.00
506;DHT22;551;48.524;9.056;2024-02-14T05:17:49;3.50;1.00
506;DHT22;551;48.524;9.056;2024-02-14T05:20:18;3.60;1.00
506;DHT22;551;48.524;9.056;2024-02-14T05:22:43;3.70;1.00
506;DHT22;551;48.524;9.056;2024-02-14T05:25:09;3.80;1.00
506;DHT22;551;48.524;9.056;2024-02-14T05:27:37;3.90;1.00
506;DHT22;551;48.524;9.056;2024-02-14T05:30:03;4.00;1.00
506;DHT22;551;48.524;9.056;2024-02-14T05:32:35;3.90;1.00
506;DHT22;551;48.524;9.056;2024-02-14T05:35:01;4.00;1.00
506;DHT22;551;48.524;9.056;2024-02-14T05:37:27;4.10;1.00
506;DHT22;551;48.524;9.056;2024-02-14T05:39:53;4.20;1.00
506;DHT22;551;48.524;9.056;2024-02-14T05:42:19;4.20;1.00
506;DHT22;551;48.524;9.056;2024-02-14T05:44:44;4.30;1.00
506;DHT22;551;48.524;9.056;2024-02-14T05:47:09;4.30;1.00
506;DHT22;551;48.524;9.056;2024-02-14T05:49:40;4.30;1.00
506;DHT22;551;48.524;9.056;2024-02-14T05:52:07;4.30;1.00
506;DHT22;551;48.524;9.056;2024-02-14T05:54:33;4.40;1.00
506;DHT22;551;48.524;9.056;2024-02-14T05:56:59;4.40;1.00
506;DHT22;551;48.524;9.056;2024-02-14T05:59:25;4.40;1.00
506;DHT22;551;48.524;9.056;2024-02-14T06:01:50;4.40;1.00
506;DHT22;551;48.524;9.056;2024-02-14T06:04:18;4.50;1.00
506;DHT22;551;48.524;9.056;2024-02-14T06:06:44;4.50;1.00
506;DHT22;551;48.524;9.056;2024-02-14T06:09:09;4.50;1.00
506;DHT22;551;48.524;9.056;2024-02-14T06:11:37;4.50;1.00
506;DHT22;551;48.524;9.056;2024-02-14T06:14:07;4.50;1.00
506;DHT22;551;48.524;9.056;2024-02-14T06:16:33;4.60;1.00
506;DHT22;551;48.524;9.056;2024-02-14T06:18:59;4.60;1.00
506;DHT22;551;48.524;9.056;2024-02-14T06:21:24;4.60;1.00
506;DHT22;551;48.524;9.056;2024-02-14T06:23:51;4.60;1.00
506;DHT22;551;48.524;9.056;2024-02-14T06:26:16;4.60;1.00
506;DHT22;551;48.524;9.056;2024-02-14T06:28:43;4.70;1.00
506;DHT22;551;48.524;9.056;2024-02-14T06:31:09;4.70;1.00
506;DHT22;551;48.524;9.056;2024-02-14T06:33:35;4.80;1.00
506;DHT22;551;48.524;9.056;2024-02-14T06:36:01;4.80;1.00
506;DHT22;551;48.524;9.056;2024-02-14T06:38:26;4.80;1.00
506;DHT22;551;48.524;9.056;2024-02-14T06:40:52;4.90;1.00
506;DHT22;551;48.524;9.056;2024-02-14T06:43:17;4.90;1.00
506;DHT22;551;48.524;9.056;2024-02-14T06:45:43;4.90;1.00
506;DHT22;551;48.524;9.056;2024-02-14T06:48:09;5.00;1.00
506;DHT22;551;48.524;9.056;2024-02-14T06:50:34;5.00;1.00
506;DHT22;551;48.524;9.056;2024-02-14T06:53:00;5.00;1.00
506;DHT22;551;48.524;9.056;2024-02-14T06:55:26;5.00;1.00
506;DHT22;551;48.524;9.056;2024-02-14T06:57:52;5.00;1.00
506;DHT22;551;48.524;9.056;2024-02-14T07:00:18;5.10;1.00
506;DHT22;551;48.524;9.056;2024-02-14T07:02:44;5.00;1.00
506;DHT22;551;48.524;9.056;2024-02-14T07:05:12;5.00;1.00
506;DHT22;551;48.524;9.056;2024-02-14T07:07:40;5.00;1.00
506;DHT22;551;48.524;9.056;2024-02-14T07:10:06;5.00;1.00
506;DHT22;551;48.524;9.056;2024-02-14T07:12:32;5.00;1.00
506;DHT22;551;48.524;9.056;2024-02-14T07:14:57;5.00;1.00
506;DHT22;551;48.524;9.056;2024-02-14T07:17:23;5.10;1.00
506;DHT22;551;48.524;9.056;2024-02-14T07:19:48;5.10;1.00
506;DHT22;551;48.524;9.056;2024-02-14T07:22:15;5.20;1.00
506;DHT22;551;48.524;9.056;2024-02-14T07:24:41;5.30;1.00
506;DHT22;551;48.524;9.056;2024-02-14T07:27:08;5.30;1.00
506;DHT22;551;48.524;9.056;2024-02-14T07:29:34;5.50;1.00
506;DHT22;551;48.524;9.056;2024-02-14T07:32:02;5.60;1.00
506;DHT22;551;48.524;9.056;2024-02-14T07:34:28;5.70;1.00
506;DHT22;551;48.524;9.056;2024-02-14T07:36:53;5.70;1.00
506;DHT22;551;48.524;9.056;2024-02-14T07:39:19;5.70;1.00
506;DHT22;551;48.524;9.056;2024-02-14T07:41:44;5.80;1.00
506;DHT22;551;48.524;9.056;2024-02-14T07:44:10;5.90;1.00
506;DHT22;551;48.524;9.056;2024-02-14T07:46:35;6.10;1.00
506;DHT22;551;48.524;9.056;2024-02-14T07:49:01;6.40;1.00
506;DHT22;551;48.524;9.056;2024-02-14T07:51:26;6.70;1.00
506;DHT22;551;48.524;9.056;2024-02-14T07:53:54;7.00;1.00
506;DHT22;551;48.524;9.056;2024-02-14T07:56:20;7.30;1.00
506;DHT22;551;48.524;9.056;2024-02-14T07:58:45;7.60;1.00
506;DHT22;551;48.524;9.056;2024-02-14T08:01:11;8.00;1.00
506;DHT22;551;48.524;9.056;2024-02-14T08:03:36;8.30;1.00
506;DHT22;551;48.524;9.056;2024-02-14T08:06:02;8.40;1.00
506;DHT22;551;48.524;9.056;2024-02-14T08:08:28;8.40;1.00
506;DHT22;551;48.524;9.056;2024-02-14T08:10:53;8.60;1.00
506;DHT22;551;48.524;9.056;2024-02-14T08:13:20;8.80;1.00
506;DHT22;551;48.524;9.056;2024-02-14T08:15:45;8.80;1.00
506;DHT22;551;48.524;9.056;2024-02-14T08:18:11;8.90;1.00
506;DHT22;551;48.524;9.056;2024-02-14T08:20:37;9.00;1.00
506;DHT22;551;48.524;9.056;2024-02-14T08:23:03;9.00;1.00
506;DHT22;551;48.524;9.056;2024-02-14T08:25:29;9.10;1.00
506;DHT22;551;48.524;9.056;2024-02-14T08:27:55;9.20;1.00
506;DHT22;551;48.524;9.056;2024-02-14T08:30:21;9.40;1.00
506;DHT22;551;48.524;9.056;2024-02-14T08:32:46;9.40;1.00
506;DHT22;551;48.524;9.056;2024-02-14T08:35:12;9.50;1.00
506;DHT22;551;48.524;9.056;2024-02-14T08:37:39;9.70;1.00
506;DHT22;551;48.524;9.056;2024-02-14T08:40:06;10.10;1.00
506;DHT22;551;48.524;9.056;2024-02-14T08:42:33;10.50;1.00
506;DHT22;551;48.524;9.056;2024-02-14T08:44:59;10.80;1.00
506;DHT22;551;48.524;9.056;2024-02-14T08:47:24;11.00;1.00
506;DHT22;551;48.524;9.056;2024-02-14T08:49:51;11.20;1.00
506;DHT22;551;48.524;9.056;2024-02-14T08:52:17;11.30;1.00
506;DHT22;551;48.524;9.056;2024-02-14T08:54:44;11.40;1.00
506;DHT22;551;48.524;9.056;2024-02-14T08:57:09;11.40;1.00
506;DHT22;551;48.524;9.056;2024-02-14T08:59:35;11.30;1.00
506;DHT22;551;48.524;9.056;2024-02-14T09:02:00;11.50;1.00
506;DHT22;551;48.524;9.056;2024-02-14T09:04:26;11.30;1.00
506;DHT22;551;48.524;9.056;2024-02-14T09:06:52;11.20;1.00
506;DHT22;551;48.524;9.056;2024-02-14T09:09:18;11.20;1.00
506;DHT22;551;48.524;9.056;2024-02-14T09:11:45;11.20;1.00
506;DHT22;551;48.524;9.056;2024-02-14T09:14:12;11.20;1.00
506;DHT22;551;48.524;9.056;2024-02-14T09:16:37;10.90;1.00
506;DHT22;551;48.524;9.056;2024-02-14T09:19:03;10.90;1.00
506;DHT22;551;48.524;9.056;2024-02-14T09:21:30;10.90;1.00
506;DHT22;551;48.524;9.056;2024-02-14T09:23:56;10.90;1.00
506;DHT22;551;48.524;9.056;2024-02-14T09:26:22;10.90;1.00
506;DHT22;551;48.524;9.056;2024-02-14T09:28:47;10.90;1.00
506;DHT22;551;48.524;9.056;2024-02-14T09:31:20;11.00;1.00
506;DHT22;551;48.524;9.056;2024-02-14T09:33:48;11.30;1.00
506;DHT22;551;48.524;9.056;2024-02-14T09:36:19;11.30;1.00
506;DHT22;551;48.524;9.056;2024-02-14T09:38:44;11.30;1.00
506;DHT22;551;48.524;9.056;2024-02-14T09:41:15;11.40;1.00
506;DHT22;551;48.524;9.056;2024-02-14T09:43:44;11.50;1.00
506;DHT22;551;48.524;9.056;2024-02-14T09:46:13;11.80;1.00
506;DHT22;551;48.524;9.056;2024-02-14T09:48:38;12.00;1.00
506;DHT22;551;48.524;9.056;2024-02-14T09:51:05;12.20;1.00
506;DHT22;551;48.524;9.056;2024-02-14T09:53:32;12.50;1.00
506;DHT22;551;48.524;9.056;2024-02-14T09:55:59;12.70;1.00
506;DHT22;551;48.524;9.056;2024-02-14T09:58:25;12.80;1.00
506;DHT22;551;48.524;9.056;2024-02-14T10:00:52;12.90;1.00
506;DHT22;551;48.524;9.056;2024-02-14T10:03:18;13.30;1.00
506;DHT22;551;48.524;9.056;2024-02-14T10:05:43;13.70;1.00
506;DHT22;551;48.524;9.056;2024-02-14T10:08:10;14.50;1.00
506;DHT22;551;48.524;9.056;2024-02-14T10:10:37;15.10;1.00
506;DHT22;551;48.524;9.056;2024-02-14T10:13:04;15.90;1.00
506;DHT22;551;48.524;9.056;2024-02-14T10:15:30;16.60;1.00
506;DHT22;551;48.524;9.056;2024-02-14T10:18:06;17.00;1.00
506;DHT22;551;48.524;9.056;2024-02-14T10:20:35;17.70;1.00
506;DHT22;551;48.524;9.056;2024-02-14T10:23:07;18.80;1.00
506;DHT22;551;48.524;9.056;2024-02-14T10:25:34;20.30;1.00
506;DHT22;551;48.524;9.056;2024-02-14T10:28:06;21.90;1.00
506;DHT22;551;48.524;9.056;2024-02-14T10:30:36;23.30;1.00
506;DHT22;551;48.524;9.056;2024-02-14T10:33:03;24.10;1.00
506;DHT22;551;48.524;9.056;2024-02-14T10:35:30;24.90;1.00
506;DHT22;551;48.524;9.056;2024-02-14T10:37:58;25.30;1.00
506;DHT22;551;48.524;9.056;2024-02-14T10:40:28;25.60;1.00
506;DHT22;551;48.524;9.056;2024-02-14T10:42:55;25.10;1.00
506;DHT22;551;48.524;9.056;2024-02-14T10:45:20;24.20;1.00
506;DHT22;551;48.524;9.056;2024-02-14T10:47:46;23.40;1.00
506;DHT22;551;48.524;9.056;2024-02-14T10:50:15;22.40;1.00
506;DHT22;551;48.524;9.056;2024-02-14T10:52:41;21.80;1.00
506;DHT22;551;48.524;9.056;2024-02-14T10:55:07;21.30;1.00
506;DHT22;551;48.524;9.056;2024-02-14T10:57:34;21.30;1.00
506;DHT22;551;48.524;9.056;2024-02-14T11:00:03;21.50;1.00
506;DHT22;551;48.524;9.056;2024-02-14T11:02:29;21.70;1.00
506;DHT22;551;48.524;9.056;2024-02-14T11:04:56;21.70;1.00
506;DHT22;551;48.524;9.056;2024-02-14T11:07:22;21.50;1.00
506;DHT22;551;48.524;9.056;2024-02-14T11:12:33;20.90;1.00
506;DHT22;551;48.524;9.056;2024-02-14T11:15:00;20.50;1.00
506;DHT22;551;48.524;9.056;2024-02-14T11:17:26;20.40;1.00
506;DHT22;551;48.524;9.056;2024-02-14T11:19:53;20.20;1.00
506;DHT22;551;48.524;9.056;2024-02-14T11:22:19;20.30;1.00
506;DHT22;551;48.524;9.056;2024-02-14T11:24:46;20.40;1.00
506;DHT22;551;48.524;9.056;2024-02-14T11:27:12;20.30;1.00
506;DHT22;551;48.524;9.056;2024-02-14T11:29:50;20.10;1.00
506;DHT22;551;48.524;9.056;2024-02-14T11:32:17;20.10;1.00
506;DHT22;551;48.524;9.056;2024-02-14T11:34:44;20.30;1.00
506;DHT22;551;48.524;9.056;2024-02-14T11:37:19;20.60;1.00
506;DHT22;551;48.524;9.056;2024-02-14T11:39:46;20.50;1.00
506;DHT22;551;48.524;9.056;2024-02-14T11:42:11;20.60;1.00
506;DHT22;551;48.524;9.056;2024-02-14T11:44:39;20.70;1.00
506;DHT22;551;48.524;9.056;2024-02-14T11:47:09;20.80;1.00
506;DHT22;551;48.524;9.056;2024-02-14T11:49:46;20.80;1.00
506;DHT22;551;48.524;9.056;2024-02-14T11:52:14;20.80;1.00
506;DHT22;551;48.524;9.056;2024-02-14T11:54:40;21.20;1.00
506;DHT22;551;48.524;9.056;2024-02-14T11:57:17;21.80;1.00
506;DHT22;551;48.524;9.056;2024-02-14T11:59:50;22.30;1.00
506;DHT22;551;48.524;9.056;2024-02-14T12:02:18;22.90;1.00
506;DHT22;551;48.524;9.056;2024-02-14T12:04:45;23.10;1.00
506;DHT22;551;48.524;9.056;2024-02-14T12:07:12;23.40;1.00
506;DHT22;551;48.524;9.056;2024-02-14T12:09:38;23.50;1.00
506;DHT22;551;48.524;9.056;2024-02-14T12:12:04;23.90;1.00
506;DHT22;551;48.524;9.056;2024-02-14T12:14:32;24.00;1.00
506;DHT22;551;48.524;9.056;2024-02-14T12:17:00;24.20;1.00
506;DHT22;551;48.524;9.056;2024-02-14T12:19:29;24.30;1.00
506;DHT22;551;48.524;9.056;2024-02-14T12:21:54;24.50;1.00
506;DHT22;551;48.524;9.056;2024-02-14T12:24:21;24.70;1.00
506;DHT22;551;48.524;9.056;2024-02-14T12:26:48;24.10;1.00
506;DHT22;551;48.524;9.056;2024-02-14T12:29:18;23.90;1.00
506;DHT22;551;48.524;9.056;2024-02-14T12:31:43;24.10;1.00
506;DHT22;551;48.524;9.056;2024-02-14T12:34:11;23.90;1.00
506;DHT22;551;48.524;9.056;2024-02-14T12:36:36;23.80;1.00
506;DHT22;551;48.524;9.056;2024-02-14T12:39:03;23.80;1.00
506;DHT22;551;48.524;9.056;2024-02-14T12:41:30;23.50;1.00
506;DHT22;551;48.524;9.056;2024-02-14T12:43:56;23.30;1.00
506;DHT22;551;48.524;9.056;2024-02-14T12:46:22;23.30;1.00
506;DHT22;551;48.524;9.056;2024-02-14T12:48:48;23.30;1.00
506;DHT22;551;48.524;9.056;2024-02-14T12:51:14;23.10;1.00
506;DHT22;551;48.524;9.056;2024-02-14T12:53:40;23.00;1.00
506;DHT22;551;48.524;9.056;2024-02-14T12:56:06;23.10;1.00
506;DHT22;551;48.524;9.056;2024-02-14T12:58:32;22.60;1.00
506;DHT22;551;48.524;9.056;2024-02-14T13:00:58;22.10;1.00
506;DHT22;551;48.524;9.056;2024-02-14T13:03:24;21.70;1.00
506;DHT22;551;48.524;9.056;2024-02-14T13:05:50;21.10;1.00
506;DHT22;551;48.524;9.056;2024-02-14T13:08:16;20.60;1.00
506;DHT22;551;48.524;9.056;2024-02-14T13:10:43;20.30;1.00
506;DHT22;551;48.524;9.056;2024-02-14T13:13:08;20.00;1.00
506;DHT22;551;48.524;9.056;2024-02-14T13:15:34;19.60;1.00
506;DHT22;551;48.524;9.056;2024-02-14T13:17:59;19.40;1.00
506;DHT22;551;48.524;9.056;2024-02-14T13:20:25;19.30;1.00
506;DHT22;551;48.524;9.056;2024-02-14T13:22:51;19.20;1.00
506;DHT22;551;48.524;9.056;2024-02-14T13:25:17;18.90;1.00
506;DHT22;551;48.524;9.056;2024-02-14T13:27:44;18.70;1.00
506;DHT22;551;48.524;9.056;2024-02-14T13:30:10;18.60;1.00
506;DHT22;551;48.524;9.056;2024-02-14T13:32:36;18.60;1.00
506;DHT22;551;48.524;9.056;2024-02-14T13:35:02;18.70;1.00
506;DHT22;551;48.524;9.056;2024-02-14T13:37:28;18.60;1.00
506;DHT22;551;48.524;9.056;2024-02-14T13:39:55;18.60;1.00
506;DHT22;551;48.524;9.056;2024-02-14T13:42:20;18.60;1.00
506;DHT22;551;48.524;9.056;2024-02-14T13:44:47;18.60;1.00
506;DHT22;551;48.524;9.056;2024-02-14T13:47:14;18.60;1.00
506;DHT22;551;48.524;9.056;2024-02-14T13:49:40;18.60;1.00
506;DHT22;551;48.524;9.056;2024-02-14T13:52:05;18.60;1.00
506;DHT22;551;48.524;9.056;2024-02-14T13:54:31;18.40;1.00
506;DHT22;551;48.524;9.056;2024-02-14T13:56:59;18.10;1.00
506;DHT22;551;48.524;9.056;2024-02-14T13:59:25;18.00;1.00
506;DHT22;551;48.524;9.056;2024-02-14T14:01:51;17.80;1.00
506;DHT22;551;48.524;9.056;2024-02-14T14:04:17;17.60;1.00
506;DHT22;551;48.524;9.056;2024-02-14T14:06:42;17.50;1.00
506;DHT22;551;48.524;9.056;2024-02-14T14:09:08;17.30;1.00
506;DHT22;551;48.524;9.056;2024-02-14T14:11:35;17.20;1.00
506;DHT22;551;48.524;9.056;2024-02-14T14:14:00;17.10;1.00
506;DHT22;551;48.524;9.056;2024-02-14T14:16:26;17.10;1.00
506;DHT22;551;48.524;9.056;2024-02-14T14:18:52;17.10;1.00
506;DHT22;551;48.524;9.056;2024-02-14T14:21:17;17.10;1.00
506;DHT22;551;48.524;9.056;2024-02-14T14:23:43;17.00;1.00
506;DHT22;551;48.524;9.056;2024-02-14T14:26:09;17.00;1.00
506;DHT22;551;48.524;9.056;2024-02-14T14:28:35;17.00;1.00
506;DHT22;551;48.524;9.056;2024-02-14T14:31:01;17.00;1.00
506;DHT22;551;48.524;9.056;2024-02-14T14:33:27;17.00;1.00
506;DHT22;551;48.524;9.056;2024-02-14T14:35:53;17.00;1.00
506;DHT22;551;48.524;9.056;2024-02-14T14:38:20;17.00;1.00
506;DHT22;551;48.524;9.056;2024-02-14T14:40:46;17.10;1.00
506;DHT22;551;48.524;9.056;2024-02-14T14:43:13;17.10;1.00
506;DHT22;551;48.524;9.056;2024-02-14T14:45:38;17.00;1.00
506;DHT22;551;48.524;9.056;2024-02-14T14:48:05;17.00;1.00
506;DHT22;551;48.524;9.056;2024-02-14T14:50:31;16.90;1.00
506;DHT22;551;48.524;9.056;2024-02-14T14:52:57;16.90;1.00
506;DHT22;551;48.524;9.056;2024-02-14T14:55:24;16.90;1.00
506;DHT22;551;48.524;9.056;2024-02-14T14:57:49;17.00;1.00
506;DHT22;551;48.524;9.056;2024-02-14T15:00:15;16.90;1.00
506;DHT22;551;48.524;9.056;2024-02-14T15:02:42;16.90;1.00
506;DHT22;551;48.524;9.056;2024-02-14T15:05:10;16.90;1.00
506;DHT22;551;48.524;9.056;2024-02-14T15:07:36;16.90;1.00
506;DHT22;551;48.524;9.056;2024-02-14T15:10:02;16.90;1.00
506;DHT22;551;48.524;9.056;2024-02-14T15:12:28;16.90;1.00
506;DHT22;551;48.524;9.056;2024-02-14T15:14:54;16.90;1.00
506;DHT22;551;48.524;9.056;2024-02-14T15:17:19;16.90;1.00
506;DHT22;551;48.524;9.056;2024-02-14T15:19:46;16.90;1.00
506;DHT22;551;48.524;9.056;2024-02-14T15:22:11;16.80;1.00
506;DHT22;551;48.524;9.056;2024-02-14T15:24:37;16.80;1.00
506;DHT22;551;48.524;9.056;2024-02-14T15:27:05;16.70;1.00
506;DHT22;551;48.524;9.056;2024-02-14T15:29:31;16.60;1.00
506;DHT22;551;48.524;9.056;2024-02-14T15:32:16;16.50;1.00
506;DHT22;551;48.524;9.056;2024-02-14T15:35:00;16.50;1.00
506;DHT22;551;48.524;9.056;2024-02-14T15:37:25;16.30;1.00
506;DHT22;551;48.524;9.056;2024-02-14T15:39:51;16.30;1.00
506;DHT22;551;48.524;9.056;2024-02-14T15:42:17;16.30;1.00
506;DHT22;551;48.524;9.056;2024-02-14T15:44:43;16.10;1.00
506;DHT22;551;48.524;9.056;2024-02-14T15:47:09;16.10;1.00
506;DHT22;551;48.524;9.056;2024-02-14T15:49:35;16.00;1.00
506;DHT22;551;48.524;9.056;2024-02-14T15:52:01;15.90;1.00
506;DHT22;551;48.524;9.056;2024-02-14T15:54:27;15.90;1.00
506;DHT22;551;48.524;9.056;2024-02-14T15:56:53;15.80;1.00
506;DHT22;551;48.524;9.056;2024-02-14T15:59:18;15.80;1.00
506;DHT22;551;48.524;9.056;2024-02-14T16:01:43;15.80;1.00
506;DHT22;551;48.524;9.056;2024-02-14T16:04:09;15.70;1.00
506;DHT22;551;48.524;9.056;2024-02-14T16:06:34;15.60;1.00
506;DHT22;551;48.524;9.056;2024-02-14T16:09:03;15.60;1.00
506;DHT22;551;48.524;9.056;2024-02-14T16:11:30;15.60;1.00
506;DHT22;551;48.524;9.056;2024-02-14T16:13:56;15.50;1.00
506;DHT22;551;48.524;9.056;2024-02-14T16:16:22;15.50;1.00
506;DHT22;551;48.524;9.056;2024-02-14T16:18:47;15.50;1.00
506;DHT22;551;48.524;9.056;2024-02-14T16:21:13;15.40;1.00
506;DHT22;551;48.524;9.056;2024-02-14T16:23:38;15.30;1.00
506;DHT22;551;48.524;9.056;2024-02-14T16:26:04;15.30;1.00
506;DHT22;551;48.524;9.056;2024-02-14T16:28:30;15.20;1.00
506;DHT22;551;48.524;9.056;2024-02-14T16:30:55;15.10;1.00
506;DHT22;551;48.524;9.056;2024-02-14T16:33:21;15.10;1.00
506;DHT22;551;48.524;9.056;2024-02-14T16:35:46;15.00;1.00
506;DHT22;551;48.524;9.056;2024-02-14T16:38:12;15.00;1.00
506;DHT22;551;48.524;9.056;2024-02-14T16:40:38;15.00;1.00
506;DHT22;551;48.524;9.056;2024-02-14T16:43:05;14.90;1.00
506;DHT22;551;48.524;9.056;2024-02-14T16:45:33;14.90;1.00
506;DHT22;551;48.524;9.056;2024-02-14T16:47:59;14.80;1.00
506;DHT22;551;48.524;9.056;2024-02-14T16:50:25;14.80;1.00
506;DHT22;551;48.524;9.056;2024-02-14T16:52:54;14.70;1.00
506;DHT22;551;48.524;9.056;2024-02-14T16:55:20;14.60;1.00
506;DHT22;551;48.524;9.056;2024-02-14T16:57:45;14.60;1.00